Weather at Circle Bar Landing Strip [CLOSED]

Public forecast

Using degrees Fahrenheit for public forecast. Weather courtesy of forecast.io.

Closest aviation weather report (METAR) to Circle Bar Landing Strip

Report is more than 6 hours old.

Closest report is Ozona Municipal Airport, 6.0 nm (11.0 km) WNW. Retrieved 2022/09/17 18:55 UTC (17 days ago):

KOZA 171855Z AUTO 19014G21KT 10SM BKN039 BKN049 30/17 A3005 RMK AO2

Closest aviation forecast (TAF) to Circle Bar Landing Strip

Forecast is more than 12 hours old.

Closest forecast is Sonora Municipal Airport, 24.0 nm (44.5 km) ESE. Retrieved 2022/09/17 18:24 UTC (17 days ago):

TAF KSOA 171723Z 1718/1818 18011G17KT P6SM SCT040 FM180100 15005KT P6SM SKC FM181200 16006KT P6SM SCT020 FM181600 17010KT P6SM SCT250